createdAt,value
2018-11-11T00:00:48.203Z,20.11
2018-11-11T00:03:14.181Z,20.08
2018-11-11T00:05:40.201Z,20.10
2018-11-11T00:08:06.152Z,20.14
2018-11-11T00:10:32.101Z,20.13
2018-11-11T00:12:58.071Z,20.14
2018-11-11T00:15:24.028Z,20.11
2018-11-11T00:17:50.013Z,20.10
2018-11-11T00:20:15.991Z,20.09
2018-11-11T00:22:41.995Z,20.09
2018-11-11T00:25:07.908Z,20.08
2018-11-11T00:27:33.946Z,20.07
2018-11-11T00:29:59.888Z,20.09
2018-11-11T00:32:25.902Z,20.08
2018-11-11T00:34:51.859Z,20.07
2018-11-11T00:37:17.806Z,20.06
2018-11-11T00:39:43.850Z,20.07
2018-11-11T00:42:09.739Z,20.07
2018-11-11T00:44:35.741Z,20.07
2018-11-11T00:47:01.704Z,20.10
2018-11-11T00:49:27.722Z,20.06
2018-11-11T00:51:53.750Z,20.07
2018-11-11T00:54:19.711Z,20.07
2018-11-11T00:56:45.830Z,20.08
2018-11-11T00:59:11.812Z,20.06
2018-11-11T01:01:37.797Z,20.07
2018-11-11T01:04:03.744Z,20.05
2018-11-11T01:06:29.718Z,20.06
2018-11-11T01:08:55.669Z,20.05
2018-11-11T01:11:21.648Z,20.05
2018-11-11T01:13:47.591Z,20.05
2018-11-11T01:16:13.543Z,20.05
2018-11-11T01:18:39.547Z,20.04
2018-11-11T01:21:05.501Z,20.03
2018-11-11T01:23:31.451Z,20.02
2018-11-11T01:25:57.393Z,20.05
2018-11-11T01:28:23.398Z,20.05
2018-11-11T01:30:49.380Z,20.03
2018-11-11T01:33:15.339Z,20.03
2018-11-11T01:35:41.356Z,20.03
2018-11-11T01:38:07.295Z,20.03
2018-11-11T01:40:33.254Z,20.02
2018-11-11T01:42:59.199Z,20.04
2018-11-11T01:45:25.157Z,20.03
2018-11-11T01:47:51.103Z,20.04
2018-11-11T01:50:17.048Z,20.02
2018-11-11T01:52:42.985Z,20.04
2018-11-11T01:55:08.952Z,20.03
2018-11-11T01:57:34.918Z,20.03
2018-11-11T02:00:00.854Z,20.00
2018-11-11T02:02:26.819Z,20.00
2018-11-11T02:04:52.762Z,19.98
2018-11-11T02:07:18.728Z,20.01
2018-11-11T02:09:44.753Z,20.02
2018-11-11T02:12:10.669Z,20.01
2018-11-11T02:14:36.620Z,20.02
2018-11-11T02:17:02.585Z,20.03
2018-11-11T02:19:28.538Z,20.04
2018-11-11T02:21:54.488Z,20.09
2018-11-11T02:24:21.056Z,20.10
2018-11-11T02:26:46.996Z,20.11
2018-11-11T02:29:12.962Z,20.10
2018-11-11T02:31:38.932Z,20.14
2018-11-11T02:34:04.906Z,20.13
2018-11-11T02:36:30.948Z,20.12
2018-11-11T02:38:56.906Z,20.12
2018-11-11T02:41:22.844Z,20.10
2018-11-11T02:43:48.795Z,20.06
2018-11-11T02:46:14.749Z,20.07
2018-11-11T02:48:40.694Z,20.06
2018-11-11T02:51:06.704Z,20.05
2018-11-11T02:53:32.645Z,20.07
2018-11-11T02:55:58.610Z,20.05
2018-11-11T02:58:24.587Z,20.04
2018-11-11T03:00:50.536Z,20.01
2018-11-11T03:03:16.501Z,20.04
2018-11-11T03:05:42.452Z,20.00
2018-11-11T03:08:08.414Z,20.01
2018-11-11T03:10:34.405Z,19.99
2018-11-11T03:13:00.351Z,20.00
2018-11-11T03:15:26.293Z,20.00
2018-11-11T03:17:52.269Z,20.00
2018-11-11T03:20:18.216Z,19.97
2018-11-11T03:22:44.169Z,19.97
2018-11-11T03:25:10.113Z,19.97
2018-11-11T03:27:36.061Z,19.97
2018-11-11T03:30:02.016Z,19.96
2018-11-11T03:32:27.956Z,19.96
2018-11-11T03:34:53.983Z,19.94
2018-11-11T03:37:19.947Z,19.95
2018-11-11T03:39:45.890Z,19.97
2018-11-11T03:42:11.829Z,19.95
2018-11-11T03:44:37.775Z,19.97
2018-11-11T03:47:03.786Z,19.97
2018-11-11T03:49:29.735Z,19.95
2018-11-11T03:51:55.693Z,19.95
2018-11-11T03:54:21.710Z,19.92
2018-11-11T03:56:47.695Z,19.91
2018-11-11T03:59:13.674Z,19.93
2018-11-11T04:01:39.694Z,19.92
2018-11-11T04:04:05.732Z,19.92
2018-11-11T04:06:31.692Z,19.93
2018-11-11T04:08:57.680Z,19.93
2018-11-11T04:11:23.645Z,19.92
2018-11-11T04:13:49.592Z,19.91
2018-11-11T04:16:15.660Z,19.91
2018-11-11T04:18:41.692Z,19.87
2018-11-11T04:21:07.672Z,19.91
2018-11-11T04:23:33.621Z,19.91
2018-11-11T04:25:59.639Z,19.90
2018-11-11T04:28:25.606Z,19.88
2018-11-11T04:30:51.551Z,19.90
2018-11-11T04:33:17.540Z,19.87
2018-11-11T04:35:43.484Z,19.88
2018-11-11T04:38:09.517Z,19.86
2018-11-11T04:40:35.472Z,19.86
2018-11-11T04:43:01.470Z,19.85
2018-11-11T04:45:27.546Z,19.86
2018-11-11T04:47:53.451Z,19.85
2018-11-11T04:50:19.466Z,19.88
2018-11-11T04:52:45.379Z,19.87
2018-11-11T04:55:11.348Z,19.87
2018-11-11T04:57:37.314Z,19.87
2018-11-11T05:00:03.248Z,19.87
2018-11-11T05:02:29.211Z,19.87
2018-11-11T05:04:55.227Z,19.85
2018-11-11T05:07:21.175Z,19.87
2018-11-11T05:09:47.119Z,19.87
2018-11-11T05:12:13.066Z,19.85
2018-11-11T05:14:39.013Z,19.84
2018-11-11T05:17:04.968Z,19.81
2018-11-11T05:19:30.917Z,19.86
2018-11-11T05:21:56.934Z,19.86
2018-11-11T05:24:22.811Z,19.87
2018-11-11T05:26:48.769Z,19.89
2018-11-11T05:29:14.697Z,19.87
2018-11-11T05:31:40.736Z,19.87
2018-11-11T05:34:06.707Z,19.89
2018-11-11T05:36:32.711Z,19.91
2018-11-11T05:38:58.675Z,19.90
2018-11-11T05:41:24.615Z,19.95
2018-11-11T05:43:50.599Z,19.94
2018-11-11T05:46:16.544Z,19.94
2018-11-11T05:48:42.525Z,19.92
2018-11-11T05:51:08.481Z,19.91
2018-11-11T05:53:34.431Z,19.90
2018-11-11T05:56:00.395Z,19.95
2018-11-11T05:58:26.350Z,19.92
2018-11-11T06:00:52.416Z,19.91
2018-11-11T06:03:18.369Z,19.92
2018-11-11T06:05:44.468Z,19.94
2018-11-11T06:08:10.416Z,19.95
2018-11-11T06:10:36.373Z,19.94
2018-11-11T06:13:02.371Z,19.94
2018-11-11T06:15:28.336Z,19.95
2018-11-11T06:17:54.357Z,19.95
2018-11-11T06:20:20.401Z,19.96
2018-11-11T06:22:46.469Z,19.95
2018-11-11T06:25:12.429Z,19.95
2018-11-11T06:27:38.629Z,19.96
2018-11-11T06:30:04.419Z,19.96
2018-11-11T06:32:30.641Z,19.97
2018-11-11T06:34:56.593Z,19.94
2018-11-11T06:37:22.591Z,19.95
2018-11-11T06:39:48.553Z,19.95
2018-11-11T06:42:14.520Z,19.95
2018-11-11T06:44:40.472Z,19.96
2018-11-11T06:47:06.431Z,19.96
2018-11-11T06:49:32.367Z,19.96
2018-11-11T06:51:58.320Z,19.96
2018-11-11T06:54:24.274Z,19.96
2018-11-11T06:56:50.238Z,19.98
2018-11-11T06:59:16.182Z,19.98
2018-11-11T07:01:42.148Z,19.99
2018-11-11T07:04:08.092Z,19.97
2018-11-11T07:06:34.078Z,19.96
2018-11-11T07:09:00.028Z,19.96
2018-11-11T07:11:25.991Z,19.96
2018-11-11T07:13:51.960Z,19.98
2018-11-11T07:16:17.920Z,19.98
2018-11-11T07:18:43.889Z,19.97
2018-11-11T07:21:09.903Z,19.97
2018-11-11T07:23:35.943Z,19.97
2018-11-11T07:26:01.861Z,19.99
2018-11-11T07:28:27.811Z,20.00
2018-11-11T07:30:53.753Z,19.98
2018-11-11T07:33:19.739Z,19.98
2018-11-11T07:35:45.730Z,20.00
2018-11-11T07:38:11.667Z,19.98
2018-11-11T07:40:37.672Z,19.98
2018-11-11T07:43:03.610Z,19.99
2018-11-11T07:45:29.628Z,20.00
2018-11-11T07:47:55.601Z,19.99
2018-11-11T07:50:21.564Z,19.98
2018-11-11T07:52:47.669Z,19.96
2018-11-11T07:55:13.753Z,19.97
2018-11-11T07:57:39.582Z,20.00
2018-11-11T08:00:05.558Z,20.00
2018-11-11T08:02:31.507Z,20.01
2018-11-11T08:04:57.443Z,20.02
2018-11-11T08:07:23.449Z,20.02
2018-11-11T08:09:49.451Z,20.00
2018-11-11T08:12:15.430Z,20.02
2018-11-11T08:14:41.370Z,19.98
2018-11-11T08:17:07.343Z,20.00
2018-11-11T08:19:33.377Z,20.01
2018-11-11T08:21:59.333Z,20.00
2018-11-11T08:24:25.296Z,20.01
2018-11-11T08:26:51.248Z,19.99
2018-11-11T08:29:17.273Z,19.99
2018-11-11T08:31:43.232Z,20.02
2018-11-11T08:34:09.186Z,20.03
2018-11-11T08:36:35.147Z,20.03
2018-11-11T08:39:01.106Z,20.04
2018-11-11T08:41:27.086Z,20.01
2018-11-11T08:43:53.043Z,20.00
2018-11-11T08:46:19.072Z,20.01
2018-11-11T08:48:45.048Z,20.00
2018-11-11T08:51:11.034Z,20.01
2018-11-11T08:53:37.002Z,20.02
2018-11-11T08:56:02.955Z,20.02
2018-11-11T08:58:28.911Z,20.02
2018-11-11T09:00:54.863Z,20.02
2018-11-11T09:03:20.811Z,20.02
2018-11-11T09:05:46.792Z,20.03
2018-11-11T09:08:12.761Z,20.02
2018-11-11T09:10:38.747Z,20.00
2018-11-11T09:13:04.706Z,20.02
2018-11-11T09:15:30.724Z,20.00
2018-11-11T09:17:56.701Z,20.00
2018-11-11T09:20:22.680Z,20.02
2018-11-11T09:22:48.622Z,20.03
2018-11-11T09:25:14.576Z,20.04
2018-11-11T09:27:40.540Z,20.04
2018-11-11T09:30:06.504Z,20.06
2018-11-11T09:32:32.465Z,20.07
2018-11-11T09:34:58.427Z,20.08
2018-11-11T09:37:24.388Z,20.07
2018-11-11T09:39:50.393Z,20.08
2018-11-11T09:42:16.336Z,20.08
2018-11-11T09:44:43.378Z,20.12
2018-11-11T09:47:09.331Z,20.14
2018-11-11T09:49:35.303Z,20.14
2018-11-11T09:52:01.353Z,20.12
2018-11-11T09:54:27.327Z,20.14
2018-11-11T09:56:53.270Z,20.12
2018-11-11T09:59:19.332Z,20.11
2018-11-11T10:01:45.393Z,20.08
2018-11-11T10:04:11.350Z,20.09
2018-11-11T10:06:37.332Z,20.12
2018-11-11T10:09:03.236Z,20.11
2018-11-11T10:11:29.222Z,20.12
2018-11-11T10:13:55.200Z,20.10
2018-11-11T10:16:21.193Z,20.13
2018-11-11T10:18:47.171Z,20.14
2018-11-11T10:21:13.197Z,20.17
2018-11-11T10:23:39.208Z,20.17
2018-11-11T10:26:05.244Z,20.15
2018-11-11T10:28:31.196Z,20.13
2018-11-11T10:30:57.196Z,20.18
2018-11-11T10:33:23.316Z,20.16
2018-11-11T10:35:49.228Z,20.15
2018-11-11T10:38:15.192Z,20.15
2018-11-11T10:40:41.144Z,20.19
2018-11-11T10:43:07.145Z,20.17
2018-11-11T10:45:33.113Z,20.17
2018-11-11T10:47:59.078Z,20.19
2018-11-11T10:50:25.132Z,20.19
2018-11-11T10:52:51.165Z,20.25
2018-11-11T10:55:17.222Z,20.24
2018-11-11T10:57:43.178Z,20.23
2018-11-11T11:00:09.235Z,20.22
2018-11-11T11:02:35.288Z,20.27
2018-11-11T11:05:01.254Z,20.29
2018-11-11T11:07:27.200Z,20.29
2018-11-11T11:09:53.152Z,20.31
2018-11-11T11:12:19.176Z,20.32
2018-11-11T11:14:45.132Z,20.38
2018-11-11T11:17:11.083Z,20.39
2018-11-11T11:19:37.175Z,20.42
2018-11-11T11:22:03.133Z,20.44
2018-11-11T11:24:29.172Z,20.46
2018-11-11T11:26:55.136Z,20.48
2018-11-11T11:29:21.102Z,20.49
2018-11-11T11:31:47.387Z,20.52
2018-11-11T11:34:13.176Z,20.53
2018-11-11T11:36:39.153Z,20.55
2018-11-11T11:39:05.121Z,20.57
2018-11-11T11:41:31.137Z,20.57
2018-11-11T11:43:57.092Z,20.59
2018-11-11T11:46:23.480Z,20.57
2018-11-11T11:48:49.444Z,20.55
2018-11-11T11:51:15.384Z,20.58
2018-11-11T11:53:41.375Z,20.59
2018-11-11T11:56:08.482Z,20.60
2018-11-11T11:58:34.472Z,20.63
2018-11-11T12:01:01.152Z,20.65
2018-11-11T12:03:27.115Z,20.64
2018-11-11T12:05:53.400Z,20.67
2018-11-11T12:08:19.675Z,20.69
2018-11-11T12:10:45.634Z,20.67
2018-11-11T12:13:11.656Z,20.68
2018-11-11T12:15:39.684Z,20.65
2018-11-11T12:18:06.002Z,20.63
2018-11-11T12:20:32.595Z,20.58
2018-11-11T12:23:01.165Z,20.58
2018-11-11T12:25:28.001Z,20.58
2018-11-11T12:27:54.071Z,20.53
2018-11-11T12:30:21.871Z,20.50
2018-11-11T12:32:48.540Z,20.53
2018-11-11T12:35:16.021Z,20.59
2018-11-11T12:37:44.057Z,20.57
2018-11-11T12:40:12.343Z,20.50
2018-11-11T12:42:41.075Z,20.52
2018-11-11T12:45:07.571Z,20.51
2018-11-11T12:47:36.149Z,20.48
2018-11-11T12:50:02.908Z,20.49
2018-11-11T12:52:29.553Z,20.46
2018-11-11T12:54:58.611Z,20.41
2018-11-11T12:57:24.962Z,20.44
2018-11-11T12:59:51.469Z,20.44
2018-11-11T13:02:17.425Z,20.41
2018-11-11T13:04:43.411Z,20.40
2018-11-11T13:07:10.187Z,20.44
2018-11-11T13:09:37.232Z,20.41
2018-11-11T13:12:03.266Z,20.42
2018-11-11T13:14:29.211Z,20.42
2018-11-11T13:16:56.476Z,20.39
2018-11-11T13:19:22.457Z,20.39
2018-11-11T13:21:49.384Z,20.39
2018-11-11T13:24:15.375Z,20.35
2018-11-11T13:26:41.343Z,20.37
2018-11-11T13:29:07.416Z,20.37
2018-11-11T13:31:33.372Z,20.37
2018-11-11T13:33:59.337Z,20.39
2018-11-11T13:36:25.294Z,20.41
2018-11-11T13:38:51.287Z,20.42
2018-11-11T13:41:17.410Z,20.41
2018-11-11T13:43:43.376Z,20.37
2018-11-11T13:46:09.335Z,20.41
2018-11-11T13:48:35.311Z,20.40
2018-11-11T13:51:01.277Z,20.40
2018-11-11T13:53:27.217Z,20.38
2018-11-11T13:55:53.241Z,20.37
2018-11-11T13:58:19.210Z,20.38
2018-11-11T14:00:45.282Z,20.35
2018-11-11T14:03:11.309Z,20.37
2018-11-11T14:05:37.252Z,20.37
2018-11-11T14:08:03.233Z,20.35
2018-11-11T14:10:29.156Z,20.38
2018-11-11T14:12:55.399Z,20.37
2018-11-11T14:15:21.356Z,20.37
2018-11-11T14:17:47.313Z,20.38
2018-11-11T14:20:13.276Z,20.37
2018-11-11T14:22:39.232Z,20.39
2018-11-11T14:25:05.188Z,20.35
2018-11-11T14:27:31.195Z,20.37
2018-11-11T14:29:57.168Z,20.37
2018-11-11T14:32:23.166Z,20.35
2018-11-11T14:34:49.192Z,20.36
2018-11-11T14:37:15.376Z,20.34
2018-11-11T14:39:41.406Z,20.34
2018-11-11T14:42:07.361Z,20.32
2018-11-11T14:44:33.312Z,20.34
2018-11-11T14:46:59.304Z,20.32
2018-11-11T14:49:25.287Z,20.32
2018-11-11T14:51:51.279Z,20.31
2018-11-11T14:54:17.240Z,20.31
2018-11-11T14:56:43.183Z,20.29
2018-11-11T14:59:09.156Z,20.28
2018-11-11T15:01:35.187Z,20.30
2018-11-11T15:04:01.169Z,20.30
2018-11-11T15:06:27.100Z,20.29
2018-11-11T15:08:53.055Z,20.31
2018-11-11T15:11:19.095Z,20.31
2018-11-11T15:13:45.057Z,20.30
2018-11-11T15:16:11.041Z,20.30
2018-11-11T15:18:36.977Z,20.30
2018-11-11T15:21:02.991Z,20.28
2018-11-11T15:23:28.940Z,20.28
2018-11-11T15:25:54.891Z,20.28
2018-11-11T15:28:20.845Z,20.29
2018-11-11T15:30:46.909Z,20.25
2018-11-11T15:33:12.812Z,20.28
2018-11-11T15:35:38.757Z,20.28
2018-11-11T15:38:04.718Z,20.30
2018-11-11T15:40:30.744Z,20.27
2018-11-11T15:42:56.707Z,20.28
2018-11-11T15:45:22.875Z,20.32
2018-11-11T15:47:48.864Z,20.31
2018-11-11T15:50:14.839Z,20.31
2018-11-11T15:52:40.788Z,20.31
2018-11-11T15:55:06.752Z,20.30
2018-11-11T15:57:32.705Z,20.29
2018-11-11T15:59:58.663Z,20.28
2018-11-11T16:02:24.685Z,20.29
2018-11-11T16:04:50.641Z,20.27
2018-11-11T16:07:16.648Z,20.29
2018-11-11T16:09:42.664Z,20.27
2018-11-11T16:12:08.636Z,20.28
2018-11-11T16:14:34.618Z,20.28
2018-11-11T16:17:00.661Z,20.27
2018-11-11T16:19:26.693Z,20.27
2018-11-11T16:21:52.702Z,20.28
2018-11-11T16:24:18.752Z,20.30
2018-11-11T16:26:44.725Z,20.31
2018-11-11T16:29:10.680Z,20.32
2018-11-11T16:31:36.653Z,20.29
2018-11-11T16:34:02.688Z,20.30
2018-11-11T16:36:28.723Z,20.28
2018-11-11T16:38:54.630Z,20.30
2018-11-11T16:41:20.789Z,20.27
2018-11-11T16:43:46.641Z,20.30
2018-11-11T16:46:12.670Z,20.29
2018-11-11T16:48:38.724Z,20.30
2018-11-11T16:51:04.751Z,20.30
2018-11-11T16:53:30.649Z,20.31
2018-11-11T16:55:56.598Z,20.28
2018-11-11T16:58:22.646Z,20.29
2018-11-11T17:00:48.615Z,20.28
2018-11-11T17:03:14.584Z,20.27
2018-11-11T17:05:40.582Z,20.28
2018-11-11T17:08:06.565Z,20.28
2018-11-11T17:10:32.581Z,20.29
2018-11-11T17:12:58.537Z,20.28
2018-11-11T17:15:24.528Z,20.28
2018-11-11T17:17:50.477Z,20.28
2018-11-11T17:20:16.592Z,20.29
2018-11-11T17:22:42.655Z,20.28
2018-11-11T17:25:08.618Z,20.27
2018-11-11T17:27:34.540Z,20.28
2018-11-11T17:30:00.529Z,20.28
2018-11-11T17:32:26.516Z,20.30
2018-11-11T17:34:52.388Z,20.30
2018-11-11T17:37:18.340Z,20.29
2018-11-11T17:39:44.317Z,20.29
2018-11-11T17:42:10.347Z,20.27
2018-11-11T17:44:36.323Z,20.27
2018-11-11T17:47:02.288Z,20.28
2018-11-11T17:49:28.260Z,20.27
2018-11-11T17:51:54.226Z,20.30
2018-11-11T17:54:20.344Z,20.31
2018-11-11T17:56:46.261Z,20.30
2018-11-11T17:59:12.201Z,20.30
2018-11-11T18:01:38.186Z,20.29
2018-11-11T18:04:04.191Z,20.29
2018-11-11T18:06:30.210Z,20.29
2018-11-11T18:08:56.133Z,20.31
2018-11-11T18:11:22.177Z,20.30
2018-11-11T18:13:48.257Z,20.31
2018-11-11T18:16:14.183Z,20.33
2018-11-11T18:18:40.141Z,20.32
2018-11-11T18:21:06.185Z,20.30
2018-11-11T18:23:32.190Z,20.30
2018-11-11T18:25:58.148Z,20.34
2018-11-11T18:28:24.106Z,20.31
2018-11-11T18:30:50.072Z,20.31
2018-11-11T18:33:16.008Z,20.30
2018-11-11T18:35:42.010Z,20.29
2018-11-11T18:38:07.987Z,20.31
2018-11-11T18:40:33.964Z,20.30
2018-11-11T18:42:59.922Z,20.28
2018-11-11T18:45:25.927Z,20.28
2018-11-11T18:47:51.921Z,20.28
2018-11-11T18:50:18.043Z,20.27
2018-11-11T18:52:44.006Z,20.28
2018-11-11T18:55:09.996Z,20.26
2018-11-11T18:57:36.071Z,20.26
2018-11-11T19:00:02.056Z,20.28
2018-11-11T19:02:27.951Z,20.27
2018-11-11T19:04:53.924Z,20.30
2018-11-11T19:07:19.893Z,20.30
2018-11-11T19:09:45.992Z,20.26
2018-11-11T19:12:11.948Z,20.26
2018-11-11T19:14:38.091Z,20.26
2018-11-11T19:17:04.040Z,20.25
2018-11-11T19:19:30.084Z,20.26
2018-11-11T19:21:56.053Z,20.24
2018-11-11T19:24:22.081Z,20.25
2018-11-11T19:26:48.060Z,20.24
2018-11-11T19:29:13.977Z,20.25
2018-11-11T19:31:39.940Z,20.24
2018-11-11T19:34:05.945Z,20.26
2018-11-11T19:36:31.917Z,20.26
2018-11-11T19:38:57.863Z,20.27
2018-11-11T19:41:23.903Z,20.24
2018-11-11T19:43:49.817Z,20.26
2018-11-11T19:46:15.810Z,20.27
2018-11-11T19:48:41.864Z,20.28
2018-11-11T19:51:07.857Z,20.25
2018-11-11T19:53:34.186Z,20.28
2018-11-11T19:56:00.212Z,20.25
2018-11-11T19:58:26.200Z,20.27
2018-11-11T20:00:52.387Z,20.28
2018-11-11T20:03:18.733Z,20.26
2018-11-11T20:05:45.119Z,20.26
2018-11-11T20:08:11.066Z,20.28
2018-11-11T20:10:37.035Z,20.32
2018-11-11T20:13:03.266Z,20.32
2018-11-11T20:15:29.247Z,20.33
2018-11-11T20:17:55.420Z,20.33
2018-11-11T20:20:22.665Z,20.31
2018-11-11T20:22:48.684Z,20.32
2018-11-11T20:25:14.635Z,20.34
2018-11-11T20:27:40.733Z,20.36
2018-11-11T20:30:07.506Z,20.37
2018-11-11T20:32:33.540Z,20.39
2018-11-11T20:35:00.281Z,20.40
2018-11-11T20:37:26.358Z,20.40
2018-11-11T20:39:52.587Z,20.40
2018-11-11T20:42:18.869Z,20.41
2018-11-11T20:44:45.830Z,20.41
2018-11-11T20:47:11.793Z,20.40
2018-11-11T20:49:37.826Z,20.39
2018-11-11T20:52:03.740Z,20.35
2018-11-11T20:54:29.691Z,20.39
2018-11-11T20:56:55.706Z,20.34
2018-11-11T20:59:21.665Z,20.32
2018-11-11T21:01:47.621Z,20.32
2018-11-11T21:04:13.576Z,20.32
2018-11-11T21:06:39.556Z,20.31
2018-11-11T21:09:05.594Z,20.31
2018-11-11T21:11:31.616Z,20.33
2018-11-11T21:13:57.554Z,20.30
2018-11-11T21:16:23.575Z,20.28
2018-11-11T21:18:49.524Z,20.30
2018-11-11T21:21:15.728Z,20.32
2018-11-11T21:23:41.677Z,20.31
2018-11-11T21:26:07.675Z,20.30
2018-11-11T21:28:33.660Z,20.29
2018-11-11T21:30:59.611Z,20.28
2018-11-11T21:33:25.571Z,20.27
2018-11-11T21:35:51.530Z,20.28
2018-11-11T21:38:17.579Z,20.29
2018-11-11T21:40:43.474Z,20.25
2018-11-11T21:43:09.484Z,20.28
2018-11-11T21:45:35.501Z,20.29
2018-11-11T21:48:01.433Z,20.29
2018-11-11T21:50:27.412Z,20.27
2018-11-11T21:52:53.420Z,20.28
2018-11-11T21:55:19.333Z,20.27
2018-11-11T21:57:45.328Z,20.26
2018-11-11T22:00:11.282Z,20.27
2018-11-11T22:02:37.305Z,20.28
2018-11-11T22:05:03.277Z,20.25
2018-11-11T22:07:29.296Z,20.29
2018-11-11T22:09:55.273Z,20.25
2018-11-11T22:12:21.220Z,20.25
2018-11-11T22:14:47.196Z,20.26
2018-11-11T22:17:13.157Z,20.23
2018-11-11T22:19:39.120Z,20.23
2018-11-11T22:22:05.176Z,20.22
2018-11-11T22:24:31.084Z,20.23
2018-11-11T22:26:57.043Z,20.24
2018-11-11T22:29:22.988Z,20.22
2018-11-11T22:31:48.941Z,20.22
2018-11-11T22:34:14.883Z,20.22
2018-11-11T22:36:40.896Z,20.20
2018-11-11T22:39:06.881Z,20.20
2018-11-11T22:41:32.857Z,20.21
2018-11-11T22:43:58.827Z,20.18
2018-11-11T22:46:24.803Z,20.18
2018-11-11T22:48:50.784Z,20.18
2018-11-11T22:51:16.733Z,20.20
2018-11-11T22:53:42.704Z,20.17
2018-11-11T22:56:08.651Z,20.18
2018-11-11T22:58:34.624Z,20.15
2018-11-11T23:01:00.604Z,20.15
2018-11-11T23:03:26.546Z,20.14
2018-11-11T23:05:52.532Z,20.14
2018-11-11T23:08:18.519Z,20.17
2018-11-11T23:10:44.477Z,20.14
2018-11-11T23:13:10.525Z,20.15
2018-11-11T23:15:36.542Z,20.14
2018-11-11T23:18:02.566Z,20.17
2018-11-11T23:20:28.599Z,20.15
2018-11-11T23:22:54.544Z,20.15
2018-11-11T23:25:20.492Z,20.10
2018-11-11T23:27:46.475Z,20.12
2018-11-11T23:30:12.429Z,20.10
2018-11-11T23:32:38.403Z,20.11
2018-11-11T23:35:04.568Z,20.11
2018-11-11T23:37:30.511Z,20.10
2018-11-11T23:39:56.468Z,20.14
2018-11-11T23:42:22.416Z,20.12
2018-11-11T23:44:48.392Z,20.09
2018-11-11T23:47:14.343Z,20.10
2018-11-11T23:49:40.301Z,20.09
2018-11-11T23:52:06.259Z,20.11
2018-11-11T23:54:32.209Z,20.10
2018-11-11T23:56:58.200Z,20.11
2018-11-11T23:59:24.152Z,20.09
